createdAt,value
2017-11-16T00:00:38.577Z,0.27
2017-11-16T00:01:39.146Z,0.28
2017-11-16T00:02:38.540Z,0.17
2017-11-16T00:03:38.522Z,0.17
2017-11-16T00:04:38.503Z,0.19
2017-11-16T00:05:38.486Z,0.17
2017-11-16T00:06:38.488Z,0.13
2017-11-16T00:07:38.730Z,0.17
2017-11-16T00:08:38.433Z,0.09
2017-11-16T00:09:38.693Z,0.16
2017-11-16T00:10:38.950Z,0.1
2017-11-16T00:11:38.657Z,0.06
2017-11-16T00:12:38.638Z,0.14
2017-11-16T00:13:38.349Z,0.1
2017-11-16T00:14:38.328Z,0.14
2017-11-16T00:15:38.875Z,0.17
2017-11-16T00:16:38.568Z,0.14
2017-11-16T00:17:38.480Z,0.19
2017-11-16T00:18:38.259Z,0.14
2017-11-16T00:19:38.516Z,0.05
2017-11-16T00:20:38.494Z,0.1
2017-11-16T00:21:38.481Z,0.14
2017-11-16T00:22:38.759Z,0.09
2017-11-16T00:23:38.188Z,0.02
2017-11-16T00:24:38.431Z,0.09
2017-11-16T00:25:38.454Z,0.03
2017-11-16T00:26:38.405Z,0.1
2017-11-16T00:27:38.134Z,0.09
2017-11-16T00:28:38.081Z,0.09
2017-11-16T00:29:38.343Z,0.08
2017-11-16T00:30:38.395Z,0.06
2017-11-16T00:31:38.028Z,0.05
2017-11-16T00:32:38.011Z,0.06
2017-11-16T00:33:38.270Z,0.08
2017-11-16T00:34:37.977Z,0.06
2017-11-16T00:35:37.979Z,0.06
2017-11-16T00:36:37.957Z,0.08
2017-11-16T00:37:38.475Z,0.03
2017-11-16T00:38:37.926Z,0.06
2017-11-16T00:39:38.166Z,0.03
2017-11-16T00:40:38.152Z,0.02
2017-11-16T00:41:38.148Z,-0.01
2017-11-16T00:42:38.113Z,0.05
2017-11-16T00:43:38.105Z,0.08
2017-11-16T00:44:37.825Z,-0.01
2017-11-16T00:45:37.783Z,0.02
2017-11-16T00:46:38.040Z,0.01
2017-11-16T00:47:37.748Z,0.02
2017-11-16T00:48:37.748Z,-0.01
2017-11-16T00:49:38.266Z,-0.04
2017-11-16T00:50:37.972Z,0.02
2017-11-16T00:51:38.004Z,-0.05
2017-11-16T00:52:37.933Z,-0.12
2017-11-16T00:53:37.640Z,-0.13
2017-11-16T00:54:37.625Z,-0.1
2017-11-16T00:55:37.607Z,-0.04
2017-11-16T00:56:37.587Z,-0.12
2017-11-16T00:57:37.588Z,-0.09
2017-11-16T00:58:37.550Z,-0.07
2017-11-16T00:59:37.533Z,-0.09
2017-11-16T01:00:37.792Z,-0.05
2017-11-16T01:01:37.773Z,-0.16
2017-11-16T01:02:37.501Z,-0.18
2017-11-16T01:03:37.471Z,-0.15
2017-11-16T01:04:37.723Z,-0.15
2017-11-16T01:05:37.426Z,-0.07
2017-11-16T01:06:37.685Z,-0.13
2017-11-16T01:07:37.946Z,-0.15
2017-11-16T01:08:37.651Z,-0.16
2017-11-16T01:09:37.364Z,-0.19
2017-11-16T01:10:37.887Z,-0.19
2017-11-16T01:11:37.325Z,-0.22
2017-11-16T01:12:37.579Z,-0.33
2017-11-16T01:13:37.287Z,-0.3
2017-11-16T01:14:37.572Z,-0.27
2017-11-16T01:15:37.270Z,-0.23
2017-11-16T01:16:37.232Z,-0.34
2017-11-16T01:17:45.372Z,-0.34
2017-11-16T01:18:37.471Z,-0.38
2017-11-16T01:19:37.472Z,-0.4
2017-11-16T01:20:41.390Z,-0.3
2017-11-16T01:21:37.418Z,-0.31
2017-11-16T01:22:37.722Z,-0.34
2017-11-16T01:23:37.687Z,-0.36
2017-11-16T01:24:37.092Z,-0.31
2017-11-16T01:25:37.074Z,-0.38
2017-11-16T01:26:37.396Z,-0.33
2017-11-16T01:27:37.324Z,-0.3
2017-11-16T01:28:37.308Z,-0.33
2017-11-16T01:29:37.275Z,-0.37
2017-11-16T01:30:36.982Z,-0.43
2017-11-16T01:31:37.238Z,-0.45
2017-11-16T01:32:36.948Z,-0.33
2017-11-16T01:33:36.937Z,-0.31
2017-11-16T01:34:37.208Z,-0.4
2017-11-16T01:35:37.170Z,-0.36
2017-11-16T01:36:36.875Z,-0.4
2017-11-16T01:37:36.860Z,-0.34
2017-11-16T01:38:36.840Z,-0.45
2017-11-16T01:39:37.374Z,-0.45
2017-11-16T01:40:37.352Z,-0.41
2017-11-16T01:41:36.786Z,-0.3
2017-11-16T01:42:37.075Z,-0.41
2017-11-16T01:43:37.310Z,-0.38
2017-11-16T01:44:37.038Z,-0.3
2017-11-16T01:45:37.318Z,-0.36
2017-11-16T01:46:36.699Z,-0.36
2017-11-16T01:47:37.234Z,-0.34
2017-11-16T01:48:36.659Z,-0.36
2017-11-16T01:49:36.658Z,-0.36
2017-11-16T01:50:36.631Z,-0.38
2017-11-16T01:51:36.608Z,-0.4
2017-11-16T01:52:36.863Z,-0.37
2017-11-16T01:53:36.861Z,-0.37
2017-11-16T01:54:36.553Z,-0.31
2017-11-16T01:55:36.812Z,-0.38
2017-11-16T01:56:37.076Z,-0.37
2017-11-16T01:57:36.776Z,-0.33
2017-11-16T01:58:36.480Z,-0.45
2017-11-16T01:59:36.462Z,-0.38
2017-11-16T02:00:36.926Z,-0.37
2017-11-16T02:01:37.005Z,-0.38
2017-11-16T02:02:37.158Z,-0.4
2017-11-16T02:03:36.701Z,-0.45
2017-11-16T02:04:36.374Z,-0.41
2017-11-16T02:05:36.627Z,-0.37
2017-11-16T02:06:36.634Z,-0.36
2017-11-16T02:07:36.594Z,-0.36
2017-11-16T02:08:36.302Z,-0.41
2017-11-16T02:09:36.558Z,-0.4
2017-11-16T02:10:36.263Z,-0.4
2017-11-16T02:11:36.248Z,-0.41
2017-11-16T02:12:36.242Z,-0.43
2017-11-16T02:13:36.513Z,-0.49
2017-11-16T02:14:36.223Z,-0.46
2017-11-16T02:15:36.453Z,-0.46
2017-11-16T02:16:36.434Z,-0.48
2017-11-16T02:17:36.137Z,-0.48
2017-11-16T02:18:36.670Z,-0.54
2017-11-16T02:19:36.387Z,-0.52
2017-11-16T02:20:36.097Z,-0.43
2017-11-16T02:21:36.070Z,-0.48
2017-11-16T02:22:36.047Z,-0.51
2017-11-16T02:23:36.306Z,-0.54
2017-11-16T02:24:36.019Z,-0.48
2017-11-16T02:25:36.286Z,-0.51
2017-11-16T02:26:36.249Z,-0.58
2017-11-16T02:27:35.958Z,-0.52
2017-11-16T02:28:35.940Z,-0.59
2017-11-16T02:29:36.239Z,-0.52
2017-11-16T02:30:36.184Z,-0.58
2017-11-16T02:31:36.164Z,-0.56
2017-11-16T02:32:36.154Z,-0.54
2017-11-16T02:33:36.142Z,-0.54
2017-11-16T02:34:36.112Z,-0.56
2017-11-16T02:35:36.090Z,-0.73
2017-11-16T02:36:36.076Z,-0.66
2017-11-16T02:37:35.780Z,-0.69
2017-11-16T02:38:36.318Z,-0.56
2017-11-16T02:39:35.741Z,-0.61
2017-11-16T02:40:36.294Z,-0.61
2017-11-16T02:41:35.708Z,-0.64
2017-11-16T02:42:35.695Z,-0.66
2017-11-16T02:43:36.251Z,-0.61
2017-11-16T02:44:36.226Z,-0.51
2017-11-16T02:45:35.632Z,-0.67
2017-11-16T02:46:35.915Z,-0.59
2017-11-16T02:47:35.874Z,-0.67
2017-11-16T02:48:35.854Z,-0.58
2017-11-16T02:49:36.135Z,-0.54
2017-11-16T02:50:35.858Z,-0.59
2017-11-16T02:51:35.802Z,-0.56
2017-11-16T02:52:36.077Z,-0.58
2017-11-16T02:53:35.489Z,-0.54
2017-11-16T02:54:35.471Z,-0.59
2017-11-16T02:55:35.728Z,-0.54
2017-11-16T02:56:35.434Z,-0.52
2017-11-16T02:57:35.980Z,-0.58
2017-11-16T02:58:35.412Z,-0.54
2017-11-16T02:59:35.675Z,-0.61
2017-11-16T03:00:36.041Z,-0.62
2017-11-16T03:01:35.812Z,-0.58
2017-11-16T03:02:35.691Z,-0.67
2017-11-16T03:03:36.070Z,-0.52
2017-11-16T03:04:35.816Z,-0.55
2017-11-16T03:05:35.850Z,-0.58
2017-11-16T03:06:35.486Z,-0.66
2017-11-16T03:07:35.360Z,-0.64
2017-11-16T03:08:35.706Z,-0.64
2017-11-16T03:09:35.376Z,-0.58
2017-11-16T03:10:35.831Z,-0.64
2017-11-16T03:11:35.637Z,-0.66
2017-11-16T03:12:35.412Z,-0.72
2017-11-16T03:13:35.602Z,-0.62
2017-11-16T03:14:35.711Z,-0.67
2017-11-16T03:15:35.728Z,-0.61
2017-11-16T03:16:35.074Z,-0.66
2017-11-16T03:17:35.339Z,-0.69
2017-11-16T03:18:35.036Z,-0.64
2017-11-16T03:19:35.022Z,-0.7
2017-11-16T03:20:35.004Z,-0.69
2017-11-16T03:21:35.540Z,-0.61
2017-11-16T03:22:35.241Z,-0.72
2017-11-16T03:23:34.945Z,-0.72
2017-11-16T03:24:35.213Z,-0.79
2017-11-16T03:25:35.187Z,-0.67
2017-11-16T03:26:34.896Z,-0.73
2017-11-16T03:27:35.355Z,-0.79
2017-11-16T03:28:34.870Z,-0.79
2017-11-16T03:29:35.114Z,-0.74
2017-11-16T03:30:35.122Z,-0.76
2017-11-16T03:31:35.348Z,-0.7
2017-11-16T03:32:35.338Z,-0.74
2017-11-16T03:33:35.038Z,-0.79
2017-11-16T03:34:34.747Z,-0.77
2017-11-16T03:35:34.728Z,-0.77
2017-11-16T03:36:35.258Z,-0.8
2017-11-16T03:37:34.706Z,-0.84
2017-11-16T03:38:34.947Z,-0.87
2017-11-16T03:39:34.653Z,-0.74
2017-11-16T03:40:34.932Z,-0.85
2017-11-16T03:41:34.617Z,-0.84
2017-11-16T03:42:34.886Z,-0.8
2017-11-16T03:43:34.579Z,-0.77
2017-11-16T03:44:34.840Z,-0.8
2017-11-16T03:45:35.101Z,-0.76
2017-11-16T03:46:34.800Z,-0.84
2017-11-16T03:47:34.506Z,-0.73
2017-11-16T03:48:34.498Z,-0.74
2017-11-16T03:49:34.774Z,-0.8
2017-11-16T03:50:34.450Z,-0.67
2017-11-16T03:51:34.709Z,-0.66
2017-11-16T03:52:34.709Z,-0.69
2017-11-16T03:53:34.700Z,-0.59
2017-11-16T03:54:34.378Z,-0.64
2017-11-16T03:55:34.643Z,-0.62
2017-11-16T03:56:34.616Z,-0.66
2017-11-16T03:57:34.606Z,-0.58
2017-11-16T03:58:34.321Z,-0.59
2017-11-16T03:59:34.289Z,-0.54
2017-11-16T04:00:34.820Z,-0.51
2017-11-16T04:01:34.549Z,-0.52
2017-11-16T04:02:34.524Z,-0.46
2017-11-16T04:03:34.214Z,-0.41
2017-11-16T04:04:34.197Z,-0.52
2017-11-16T04:05:34.181Z,-0.49
2017-11-16T04:06:34.171Z,-0.41
2017-11-16T04:07:34.419Z,-0.41
2017-11-16T04:08:34.124Z,-0.43
2017-11-16T04:09:34.108Z,-0.48
2017-11-16T04:10:34.650Z,-0.45
2017-11-16T04:11:34.370Z,-0.43
2017-11-16T04:12:34.326Z,-0.4
2017-11-16T04:13:34.582Z,-0.46
2017-11-16T04:14:34.288Z,-0.48
2017-11-16T04:15:33.995Z,-0.45
2017-11-16T04:16:33.978Z,-0.41
2017-11-16T04:17:33.969Z,-0.4
2017-11-16T04:18:33.941Z,-0.4
2017-11-16T04:19:33.937Z,-0.38
2017-11-16T04:20:34.183Z,-0.38
2017-11-16T04:21:34.479Z,-0.38
2017-11-16T04:22:34.147Z,-0.33
2017-11-16T04:23:34.135Z,-0.41
2017-11-16T04:24:34.108Z,-0.31
2017-11-16T04:25:33.814Z,-0.33
2017-11-16T04:26:34.077Z,-0.4
2017-11-16T04:27:34.051Z,-0.37
2017-11-16T04:28:34.036Z,-0.31
2017-11-16T04:29:34.016Z,-0.37
2017-11-16T04:30:34.004Z,-0.37
2017-11-16T04:31:33.707Z,-0.27
2017-11-16T04:32:33.984Z,-0.33
2017-11-16T04:33:33.668Z,-0.31
2017-11-16T04:34:33.657Z,-0.4
2017-11-16T04:35:33.632Z,-0.27
2017-11-16T04:36:33.638Z,-0.41
2017-11-16T04:37:33.889Z,-0.37
2017-11-16T04:38:33.587Z,-0.36
2017-11-16T04:39:33.868Z,-0.37
2017-11-16T04:40:33.825Z,-0.43
2017-11-16T04:41:34.102Z,-0.4
2017-11-16T04:42:34.052Z,-0.46
2017-11-16T04:43:33.765Z,-0.4
2017-11-16T04:44:33.487Z,-0.45
2017-11-16T04:45:33.727Z,-0.34
2017-11-16T04:46:33.719Z,-0.43
2017-11-16T04:47:33.417Z,-0.3
2017-11-16T04:48:33.676Z,-0.38
2017-11-16T04:49:33.658Z,-0.36
2017-11-16T04:50:33.359Z,-0.38
2017-11-16T04:51:33.665Z,-0.37
2017-11-16T04:52:33.604Z,-0.37
2017-11-16T04:53:33.863Z,-0.43
2017-11-16T04:54:33.563Z,-0.52
2017-11-16T04:55:33.281Z,-0.43
2017-11-16T04:56:33.258Z,-0.46
2017-11-16T04:57:33.260Z,-0.46
2017-11-16T04:58:33.494Z,-0.49
2017-11-16T04:59:33.491Z,-0.51
2017-11-16T05:00:33.473Z,-0.41
2017-11-16T05:01:33.180Z,-0.46
2017-11-16T05:02:33.423Z,-0.51
2017-11-16T05:03:33.129Z,-0.49
2017-11-16T05:04:33.657Z,-0.46
2017-11-16T05:05:33.101Z,-0.45
2017-11-16T05:06:33.358Z,-0.51
2017-11-16T05:07:33.329Z,-0.4
2017-11-16T05:08:33.041Z,-0.51
2017-11-16T05:09:33.018Z,-0.48
2017-11-16T05:10:33.277Z,-0.4
2017-11-16T05:11:33.255Z,-0.46
2017-11-16T05:12:33.239Z,-0.52
2017-11-16T05:13:32.947Z,-0.52
2017-11-16T05:14:33.214Z,-0.51
2017-11-16T05:15:33.463Z,-0.54
2017-11-16T05:16:33.439Z,-0.52
2017-11-16T05:17:33.428Z,-0.55
2017-11-16T05:18:32.855Z,-0.58
2017-11-16T05:19:33.388Z,-0.56
2017-11-16T05:20:33.096Z,-0.59
2017-11-16T05:21:33.091Z,-0.7
2017-11-16T05:22:32.782Z,-0.62
2017-11-16T05:23:33.316Z,-0.7
2017-11-16T05:24:32.765Z,-0.67
2017-11-16T05:25:32.731Z,-0.64
2017-11-16T05:26:32.983Z,-0.69
2017-11-16T05:27:32.966Z,-0.62
2017-11-16T05:28:32.678Z,-0.55
2017-11-16T05:29:32.932Z,-0.74
2017-11-16T05:30:32.944Z,-0.67
2017-11-16T05:31:33.195Z,-0.66
2017-11-16T05:32:33.151Z,-0.7
2017-11-16T05:33:32.581Z,-0.72
2017-11-16T05:34:33.120Z,-0.73
2017-11-16T05:35:33.123Z,-0.64
2017-11-16T05:36:32.531Z,-0.64
2017-11-16T05:37:32.512Z,-0.67
2017-11-16T05:38:32.770Z,-0.7
2017-11-16T05:39:32.474Z,-0.69
2017-11-16T05:40:32.730Z,-0.69
2017-11-16T05:41:32.436Z,-0.72
2017-11-16T05:42:32.983Z,-0.62
2017-11-16T05:43:32.679Z,-0.66
2017-11-16T05:44:32.384Z,-0.59
2017-11-16T05:45:32.916Z,-0.67
2017-11-16T05:46:32.639Z,-0.66
2017-11-16T05:47:32.603Z,-0.54
2017-11-16T05:48:32.308Z,-0.51
2017-11-16T05:49:32.565Z,-0.38
2017-11-16T05:50:32.549Z,-0.38
2017-11-16T05:51:32.257Z,-0.36
2017-11-16T05:52:32.791Z,-0.33
2017-11-16T05:53:32.218Z,-0.19
2017-11-16T05:54:32.472Z,-0.19
2017-11-16T05:55:32.498Z,-0.05
2017-11-16T05:56:32.174Z,0.01
2017-11-16T05:57:32.437Z,0.02
2017-11-16T05:58:32.129Z,0.03
2017-11-16T05:59:32.136Z,0.08
2017-11-16T06:00:32.378Z,0.13
2017-11-16T06:01:32.348Z,0.14
2017-11-16T06:02:32.328Z,0.17
2017-11-16T06:03:32.335Z,0.28
2017-11-16T06:04:32.291Z,0.27
2017-11-16T06:05:32.058Z,0.37
2017-11-16T06:06:32.269Z,0.42
2017-11-16T06:07:31.966Z,0.42
2017-11-16T06:08:32.219Z,0.41
2017-11-16T06:09:32.217Z,0.57
2017-11-16T06:10:32.187Z,0.52
2017-11-16T06:11:32.446Z,0.53
2017-11-16T06:12:32.449Z,0.64
2017-11-16T06:13:32.138Z,0.6
2017-11-16T06:14:32.121Z,0.63
2017-11-16T06:15:32.372Z,0.64
2017-11-16T06:16:32.099Z,0.74
2017-11-16T06:17:32.070Z,0.72
2017-11-16T06:18:32.044Z,0.75
2017-11-16T06:19:31.751Z,0.76
2017-11-16T06:20:31.733Z,0.81
2017-11-16T06:21:31.988Z,0.81
2017-11-16T06:22:32.019Z,0.79
2017-11-16T06:23:31.955Z,0.78
2017-11-16T06:24:32.225Z,0.85
2017-11-16T06:25:31.920Z,0.81
2017-11-16T06:26:31.646Z,0.79
2017-11-16T06:27:31.884Z,0.81
2017-11-16T06:28:31.592Z,0.85
2017-11-16T06:29:31.577Z,0.82
2017-11-16T06:30:31.836Z,0.78
2017-11-16T06:31:31.539Z,0.85
2017-11-16T06:32:31.801Z,0.79
2017-11-16T06:33:31.515Z,0.78
2017-11-16T06:34:31.494Z,0.79
2017-11-16T06:35:31.472Z,0.81
2017-11-16T06:36:31.456Z,0.79
2017-11-16T06:37:32.011Z,0.78
2017-11-16T06:38:31.714Z,0.82
2017-11-16T06:39:31.682Z,0.85
2017-11-16T06:40:31.942Z,0.86
2017-11-16T06:41:31.394Z,0.86
2017-11-16T06:42:31.349Z,0.89
2017-11-16T06:43:31.879Z,0.93
2017-11-16T06:44:31.646Z,0.99
2017-11-16T06:45:31.570Z,1.02
2017-11-16T06:46:31.280Z,0.97
2017-11-16T06:47:31.837Z,1.11
2017-11-16T06:48:31.536Z,1.11
2017-11-16T06:49:31.227Z,1.03
2017-11-16T06:50:31.506Z,1.1
2017-11-16T06:51:31.190Z,1.08
2017-11-16T06:52:31.192Z,1.11
2017-11-16T06:53:31.431Z,1.07
2017-11-16T06:54:31.418Z,1.07
2017-11-16T06:55:31.122Z,1.12
2017-11-16T06:56:31.381Z,1.07
2017-11-16T06:57:31.363Z,1.12
2017-11-16T06:58:31.343Z,1.11
2017-11-16T06:59:31.058Z,1.12
2017-11-16T07:00:31.587Z,1.14
2017-11-16T07:01:31.032Z,1.12
2017-11-16T07:02:31.002Z,1.2
2017-11-16T07:03:31.261Z,1.12
2017-11-16T07:04:30.989Z,1.18
2017-11-16T07:05:31.237Z,1.24
2017-11-16T07:06:30.935Z,1.29
2017-11-16T07:07:30.933Z,1.22
2017-11-16T07:08:30.900Z,1.32
2017-11-16T07:09:30.885Z,1.28
2017-11-16T07:10:30.867Z,1.4
2017-11-16T07:11:30.850Z,1.32
2017-11-16T07:12:31.380Z,1.38
2017-11-16T07:13:30.816Z,1.39
2017-11-16T07:14:31.078Z,1.36
2017-11-16T07:15:30.780Z,1.36
2017-11-16T07:16:31.062Z,1.33
2017-11-16T07:17:31.023Z,1.39
2017-11-16T07:18:31.008Z,1.36
2017-11-16T07:19:31.007Z,1.35
2017-11-16T07:20:31.013Z,1.35
2017-11-16T07:21:30.678Z,1.38
2017-11-16T07:22:31.217Z,1.36
2017-11-16T07:23:30.920Z,1.33
2017-11-16T07:24:30.627Z,1.39
2017-11-16T07:25:30.632Z,1.3
2017-11-16T07:26:30.595Z,1.33
2017-11-16T07:27:30.865Z,1.38
2017-11-16T07:28:30.852Z,1.35
2017-11-16T07:29:30.550Z,1.38
2017-11-16T07:30:30.532Z,1.42
2017-11-16T07:31:30.510Z,1.36
2017-11-16T07:32:30.778Z,1.36
2017-11-16T07:33:30.749Z,1.46
2017-11-16T07:34:30.800Z,1.46
2017-11-16T07:35:30.464Z,1.47
2017-11-16T07:36:30.435Z,1.53
2017-11-16T07:37:30.683Z,1.4
2017-11-16T07:38:30.667Z,1.54
2017-11-16T07:39:30.377Z,1.42
2017-11-16T07:40:30.634Z,1.42
2017-11-16T07:41:30.618Z,1.44
2017-11-16T07:42:30.878Z,1.51
2017-11-16T07:43:30.887Z,1.58
2017-11-16T07:44:30.299Z,1.56
2017-11-16T07:45:30.278Z,1.6
2017-11-16T07:46:30.281Z,1.54
2017-11-16T07:47:30.243Z,1.61
2017-11-16T07:48:30.234Z,1.57
2017-11-16T07:49:30.487Z,1.75
2017-11-16T07:50:30.210Z,1.71
2017-11-16T07:51:30.730Z,1.71
2017-11-16T07:52:30.432Z,1.83
2017-11-16T07:53:30.162Z,1.84
2017-11-16T07:54:30.675Z,1.94
2017-11-16T07:55:30.383Z,2.08
2017-11-16T07:56:30.370Z,2.04
2017-11-16T07:57:30.075Z,2.04
2017-11-16T07:58:30.060Z,2.12
2017-11-16T07:59:30.315Z,2.15
2017-11-16T08:00:30.334Z,2.13
2017-11-16T08:01:30.292Z,2.22
2017-11-16T08:02:30.560Z,2.3
2017-11-16T08:03:30.526Z,2.27
2017-11-16T08:04:30.004Z,2.41
2017-11-16T08:05:30.230Z,2.48
2017-11-16T08:06:29.932Z,2.48
2017-11-16T08:07:30.186Z,2.45
2017-11-16T08:08:30.219Z,2.54
2017-11-16T08:09:29.898Z,2.52
2017-11-16T08:10:30.145Z,2.54
2017-11-16T08:11:30.117Z,2.72
2017-11-16T08:12:30.102Z,2.81
2017-11-16T08:13:30.089Z,2.72
2017-11-16T08:14:29.799Z,2.78
2017-11-16T08:15:29.788Z,2.91
2017-11-16T08:16:30.063Z,2.98
2017-11-16T08:17:29.749Z,3.01
2017-11-16T08:18:30.009Z,3.02
2017-11-16T08:19:30.009Z,3.03
2017-11-16T08:20:29.987Z,3.16
2017-11-16T08:21:29.958Z,3.16
2017-11-16T08:22:29.688Z,3.19
2017-11-16T08:23:29.924Z,3.21
2017-11-16T08:24:29.636Z,3.29
2017-11-16T08:25:29.903Z,3.42
2017-11-16T08:26:29.605Z,3.42
2017-11-16T08:27:29.588Z,3.43
2017-11-16T08:28:29.849Z,3.51
2017-11-16T08:29:29.835Z,3.58
2017-11-16T08:30:29.840Z,3.6
2017-11-16T08:31:29.527Z,3.72
2017-11-16T08:32:29.796Z,3.69
2017-11-16T08:33:29.770Z,3.75
2017-11-16T08:34:29.754Z,3.79
2017-11-16T08:35:29.742Z,3.89
2017-11-16T08:36:30.021Z,3.89
2017-11-16T08:37:29.436Z,3.92
2017-11-16T08:38:29.695Z,4.02
2017-11-16T08:39:29.678Z,4.1
2017-11-16T08:40:29.943Z,4.07
2017-11-16T08:41:29.647Z,4.14
2017-11-16T08:42:29.363Z,4.2
2017-11-16T08:43:29.362Z,4.2
2017-11-16T08:44:29.874Z,4.29
2017-11-16T08:45:29.585Z,4.3
2017-11-16T08:46:29.849Z,4.32
2017-11-16T08:47:29.283Z,4.29
2017-11-16T08:48:29.542Z,4.32
2017-11-16T08:49:29.529Z,4.42
2017-11-16T08:50:29.512Z,4.47
2017-11-16T08:51:29.507Z,4.48
2017-11-16T08:52:29.207Z,4.53
2017-11-16T08:53:29.467Z,4.51
2017-11-16T08:54:29.176Z,4.46
2017-11-16T08:55:29.172Z,4.48
2017-11-16T08:56:29.147Z,4.58
2017-11-16T08:57:29.134Z,4.58
2017-11-16T08:58:29.398Z,4.65
2017-11-16T08:59:29.390Z,4.69
2017-11-16T09:00:29.397Z,4.68
2017-11-16T09:01:29.382Z,4.84
2017-11-16T09:02:29.632Z,4.92
2017-11-16T09:03:29.049Z,4.91
2017-11-16T09:04:29.606Z,4.87
2017-11-16T09:05:29.570Z,4.95
2017-11-16T09:06:29.297Z,4.91
2017-11-16T09:07:29.265Z,4.92
2017-11-16T09:08:29.252Z,4.94
2017-11-16T09:09:28.985Z,4.97
2017-11-16T09:10:29.222Z,5.02
2017-11-16T09:11:29.205Z,5.08
2017-11-16T09:12:29.192Z,5.03
2017-11-16T09:13:29.194Z,5.05
2017-11-16T09:14:28.887Z,5
2017-11-16T09:15:29.428Z,5.05
2017-11-16T09:16:29.408Z,5.09
2017-11-16T09:17:28.846Z,5.12
2017-11-16T09:18:29.409Z,5.08
2017-11-16T09:19:29.104Z,5.08
2017-11-16T09:20:28.801Z,5.08
2017-11-16T09:21:29.064Z,5.08
2017-11-16T09:22:29.062Z,5.15
2017-11-16T09:23:29.331Z,5.15
2017-11-16T09:24:29.304Z,5.15
2017-11-16T09:25:28.740Z,5.18
2017-11-16T09:26:28.717Z,5.18
2017-11-16T09:27:28.710Z,5.23
2017-11-16T09:28:28.688Z,5.2
2017-11-16T09:29:29.227Z,5.33
2017-11-16T09:30:28.661Z,5.3
2017-11-16T09:31:28.644Z,5.23
2017-11-16T09:32:28.907Z,5.36
2017-11-16T09:33:28.625Z,5.33
2017-11-16T09:34:28.602Z,5.39
2017-11-16T09:35:28.865Z,5.36
2017-11-16T09:36:28.852Z,5.2
2017-11-16T09:37:28.558Z,5.33
2017-11-16T09:38:28.821Z,5.33
2017-11-16T09:39:28.841Z,5.39
2017-11-16T09:40:28.795Z,5.36
2017-11-16T09:41:28.505Z,5.41
2017-11-16T09:42:28.769Z,5.41
2017-11-16T09:43:28.750Z,5.45
2017-11-16T09:44:28.740Z,5.44
2017-11-16T09:45:28.754Z,5.46
2017-11-16T09:46:28.711Z,5.45
2017-11-16T09:47:28.697Z,5.57
2017-11-16T09:48:28.413Z,5.52
2017-11-16T09:49:28.946Z,5.55
2017-11-16T09:50:28.378Z,5.64
2017-11-16T09:51:28.374Z,5.59
2017-11-16T09:52:28.353Z,5.75
2017-11-16T09:53:28.344Z,5.7
2017-11-16T09:54:28.606Z,5.8
2017-11-16T09:55:28.615Z,5.87
2017-11-16T09:56:28.587Z,6
2017-11-16T09:57:28.560Z,5.95
2017-11-16T09:58:28.281Z,5.91
2017-11-16T09:59:28.535Z,5.99
2017-11-16T10:00:28.839Z,5.91
2017-11-16T10:01:28.510Z,6
2017-11-16T10:02:28.489Z,6.05
2017-11-16T10:03:28.203Z,6.07
2017-11-16T10:04:28.465Z,6.07
2017-11-16T10:05:28.175Z,6.09
2017-11-16T10:06:28.445Z,6.21
2017-11-16T10:07:28.436Z,6.26
2017-11-16T10:08:28.133Z,6.34
2017-11-16T10:09:28.673Z,6.33
2017-11-16T10:10:28.382Z,6.31
2017-11-16T10:11:28.098Z,6.31
2017-11-16T10:12:28.363Z,6.33
2017-11-16T10:13:28.341Z,6.33
2017-11-16T10:14:28.328Z,6.33
2017-11-16T10:15:28.353Z,6.4
2017-11-16T10:16:28.027Z,6.24
2017-11-16T10:17:28.291Z,6.36
2017-11-16T10:18:28.020Z,6.36
2017-11-16T10:19:28.542Z,6.4
2017-11-16T10:20:27.976Z,6.34
2017-11-16T10:21:28.514Z,6.39
2017-11-16T10:22:27.947Z,6.43
2017-11-16T10:23:28.208Z,6.42
2017-11-16T10:24:28.201Z,6.44
2017-11-16T10:25:28.180Z,6.42
2017-11-16T10:26:28.177Z,6.44
2017-11-16T10:27:28.156Z,6.43
2017-11-16T10:28:27.868Z,6.46
2017-11-16T10:29:28.127Z,6.47
2017-11-16T10:30:28.392Z,6.44
2017-11-16T10:31:28.107Z,6.51
2017-11-16T10:32:28.090Z,6.49
2017-11-16T10:33:28.082Z,6.49
2017-11-16T10:34:28.348Z,6.57
2017-11-16T10:35:28.079Z,6.6
2017-11-16T10:36:27.763Z,6.7
2017-11-16T10:37:27.749Z,6.67
2017-11-16T10:38:28.029Z,6.61
2017-11-16T10:39:28.284Z,6.72
2017-11-16T10:40:28.263Z,6.78
2017-11-16T10:41:27.970Z,6.82
2017-11-16T10:42:27.690Z,6.8
2017-11-16T10:43:27.958Z,6.8
2017-11-16T10:44:27.661Z,6.82
2017-11-16T10:45:27.647Z,6.85
2017-11-16T10:46:27.914Z,6.9
2017-11-16T10:47:27.893Z,6.97
2017-11-16T10:48:27.605Z,7.01
2017-11-16T10:49:27.879Z,6.98
2017-11-16T10:50:27.856Z,6.95
2017-11-16T10:51:27.842Z,7
2017-11-16T10:52:27.831Z,7.03
2017-11-16T10:53:27.816Z,6.97
2017-11-16T10:54:27.805Z,7.05
2017-11-16T10:55:27.790Z,7
2017-11-16T10:56:27.505Z,7.12
2017-11-16T10:57:27.491Z,7.15
2017-11-16T10:58:28.032Z,7.15
2017-11-16T10:59:27.763Z,7.19
2017-11-16T11:00:27.463Z,7.27
2017-11-16T11:01:27.715Z,7.34
2017-11-16T11:02:27.430Z,7.31
2017-11-16T11:03:27.687Z,7.47
2017-11-16T11:04:27.679Z,7.4
2017-11-16T11:05:27.390Z,7.39
2017-11-16T11:06:27.377Z,7.45
2017-11-16T11:07:27.918Z,7.44
2017-11-16T11:08:27.637Z,7.48
2017-11-16T11:09:27.339Z,7.55
2017-11-16T11:10:27.626Z,7.55
2017-11-16T11:11:27.880Z,7.49
2017-11-16T11:12:27.304Z,7.64
2017-11-16T11:13:27.297Z,7.56
2017-11-16T11:14:27.277Z,7.44
2017-11-16T11:15:27.836Z,7.61
2017-11-16T11:16:27.530Z,7.58
2017-11-16T11:17:27.534Z,7.55
2017-11-16T11:18:27.228Z,7.51
2017-11-16T11:19:27.237Z,7.56
2017-11-16T11:20:27.488Z,7.55
2017-11-16T11:21:27.191Z,7.58
2017-11-16T11:22:27.181Z,7.59
2017-11-16T11:23:27.167Z,7.54
2017-11-16T11:24:27.154Z,7.51
2017-11-16T11:25:27.690Z,7.49
2017-11-16T11:26:27.406Z,7.44
2017-11-16T11:27:27.667Z,7.48
2017-11-16T11:28:27.126Z,7.44
2017-11-16T11:29:27.647Z,7.41
2017-11-16T11:30:27.645Z,7.51
2017-11-16T11:31:27.072Z,7.51
2017-11-16T11:32:27.614Z,7.51
2017-11-16T11:33:27.319Z,7.36
2017-11-16T11:34:27.069Z,7.36
2017-11-16T11:35:27.295Z,7.36
2017-11-16T11:36:27.296Z,7.33
2017-11-16T11:37:27.266Z,7.34
2017-11-16T11:38:27.256Z,7.29
2017-11-16T11:39:26.978Z,7.3
2017-11-16T11:40:26.954Z,7.37
2017-11-16T11:41:27.241Z,7.27
2017-11-16T11:42:26.939Z,7.33
2017-11-16T11:43:27.209Z,7.22
2017-11-16T11:44:27.195Z,7.26
2017-11-16T11:45:27.469Z,7.34
2017-11-16T11:46:26.879Z,7.26
2017-11-16T11:47:27.155Z,7.27
2017-11-16T11:48:27.132Z,7.3
2017-11-16T11:49:27.119Z,7.29
2017-11-16T11:50:27.124Z,7.22
2017-11-16T11:51:27.373Z,7.23
2017-11-16T11:52:27.085Z,7.27
2017-11-16T11:53:26.793Z,7.27
2017-11-16T11:54:27.329Z,7.33
2017-11-16T11:55:26.789Z,7.31
2017-11-16T11:56:27.038Z,7.36
2017-11-16T11:57:27.026Z,7.33
2017-11-16T11:58:26.734Z,7.39
2017-11-16T11:59:26.737Z,7.37
2017-11-16T12:00:26.708Z,7.36
2017-11-16T12:01:26.992Z,7.49
2017-11-16T12:02:26.684Z,7.45
2017-11-16T12:03:26.683Z,7.41
2017-11-16T12:04:27.207Z,7.41
2017-11-16T12:05:26.647Z,7.37
2017-11-16T12:06:27.240Z,7.4
2017-11-16T12:07:26.622Z,7.44
2017-11-16T12:08:26.606Z,7.48
2017-11-16T12:09:26.598Z,7.47
2017-11-16T12:10:26.872Z,7.48
2017-11-16T12:11:26.846Z,7.44
2017-11-16T12:12:26.855Z,7.41
2017-11-16T12:13:26.824Z,7.47
2017-11-16T12:14:26.818Z,7.37
2017-11-16T12:15:26.522Z,7.44
2017-11-16T12:16:26.509Z,7.44
2017-11-16T12:17:26.775Z,7.4
2017-11-16T12:18:26.762Z,7.36
2017-11-16T12:19:26.472Z,7.29
2017-11-16T12:20:26.460Z,7.23
2017-11-16T12:21:26.724Z,7.36
2017-11-16T12:22:26.710Z,7.19
2017-11-16T12:23:26.701Z,7.34
2017-11-16T12:24:26.411Z,7.23
2017-11-16T12:25:26.674Z,7.34
2017-11-16T12:26:26.666Z,7.27
2017-11-16T12:27:26.649Z,7.33
2017-11-16T12:28:26.364Z,7.39
2017-11-16T12:29:26.348Z,7.3
2017-11-16T12:30:26.621Z,7.34
2017-11-16T12:31:26.595Z,7.36
2017-11-16T12:32:26.597Z,7.39
2017-11-16T12:33:26.574Z,7.48
2017-11-16T12:34:26.296Z,7.45
2017-11-16T12:35:26.548Z,7.45
2017-11-16T12:36:26.264Z,7.54
2017-11-16T12:37:26.528Z,7.48
2017-11-16T12:38:26.794Z,7.47
2017-11-16T12:39:26.226Z,7.51
2017-11-16T12:40:26.489Z,7.54
2017-11-16T12:41:26.479Z,7.4
2017-11-16T12:42:26.187Z,7.34
2017-11-16T12:43:26.469Z,7.4
2017-11-16T12:44:26.437Z,7.39
2017-11-16T12:45:26.708Z,7.34
2017-11-16T12:46:26.146Z,7.36
2017-11-16T12:47:26.124Z,7.36
2017-11-16T12:48:26.114Z,7.29
2017-11-16T12:49:26.382Z,7.34
2017-11-16T12:50:26.366Z,7.29
2017-11-16T12:51:26.354Z,7.36
2017-11-16T12:52:26.618Z,7.33
2017-11-16T12:53:26.052Z,7.36
2017-11-16T12:54:26.315Z,7.33
2017-11-16T12:55:26.026Z,7.41
2017-11-16T12:56:26.584Z,7.54
2017-11-16T12:57:26.279Z,7.45
2017-11-16T12:58:26.267Z,7.37
2017-11-16T12:59:25.978Z,7.37
2017-11-16T13:00:26.255Z,7.41
2017-11-16T13:01:26.229Z,7.36
2017-11-16T13:02:26.236Z,7.45
2017-11-16T13:03:25.928Z,7.55
2017-11-16T13:04:25.915Z,7.41
2017-11-16T13:05:25.904Z,7.45
2017-11-16T13:06:26.178Z,7.48
2017-11-16T13:07:26.157Z,7.44
2017-11-16T13:08:25.881Z,7.47
2017-11-16T13:09:26.143Z,7.44
2017-11-16T13:10:28.247Z,7.47
2017-11-16T13:11:26.104Z,7.39